createdAt,value
2022-09-27T00:06:57.922Z,4.10
2022-09-27T00:17:02.681Z,4.00
2022-09-27T00:27:06.099Z,3.90
2022-09-27T00:37:11.836Z,3.80
2022-09-27T00:47:24.604Z,3.60
2022-09-27T00:57:29.969Z,3.50
2022-09-27T01:07:33.447Z,3.40
2022-09-27T01:17:53.058Z,3.20
2022-09-27T01:28:24.563Z,3.10
2022-09-27T01:38:44.192Z,3.20
2022-09-27T01:48:52.223Z,3.20
2022-09-27T01:59:07.226Z,3.10
2022-09-27T02:09:14.659Z,3.00
2022-09-27T02:19:40.210Z,3.10
2022-09-27T02:29:51.005Z,2.90
2022-09-27T02:39:56.300Z,2.80
2022-09-27T02:50:26.492Z,2.60
2022-09-27T03:01:06.006Z,2.40
2022-09-27T03:11:22.213Z,2.30
2022-09-27T03:21:27.060Z,2.10
2022-09-27T03:31:30.611Z,2.00
2022-09-27T03:41:54.254Z,2.00
2022-09-27T03:51:57.857Z,2.00
2022-09-27T04:02:02.687Z,2.00
2022-09-27T04:12:26.027Z,2.00
2022-09-27T04:22:30.873Z,2.00
2022-09-27T04:32:34.486Z,1.90
2022-09-27T04:42:57.973Z,1.90
2022-09-27T04:53:01.702Z,1.90
2022-09-27T05:03:07.253Z,1.90
2022-09-27T05:13:30.550Z,2.10
2022-09-27T05:23:35.352Z,2.30
2022-09-27T05:33:39.349Z,2.50
2022-09-27T05:44:13.298Z,2.90
2022-09-27T05:54:24.196Z,3.70
2022-09-27T06:04:30.325Z,4.80
2022-09-27T06:14:56.377Z,6.40
2022-09-27T06:25:22.094Z,8.00
2022-09-27T06:35:39.276Z,9.00
2022-09-27T06:45:44.779Z,9.60
2022-09-27T06:56:16.421Z,10.40
2022-09-27T07:06:29.450Z,11.50
2022-09-27T07:16:39.441Z,13.10
2022-09-27T07:26:44.894Z,16.20
2022-09-27T07:36:49.870Z,20.10
2022-09-27T07:46:54.765Z,20.90
2022-09-27T07:57:03.364Z,22.30
2022-09-27T08:07:10.277Z,24.70
2022-09-27T08:17:18.367Z,25.60
2022-09-27T08:27:41.860Z,27.40
2022-09-27T08:38:12.157Z,30.00
2022-09-27T08:48:19.990Z,30.30
2022-09-27T08:58:29.758Z,32.20
2022-09-27T09:08:51.079Z,32.70
2022-09-27T09:19:18.262Z,37.00
2022-09-27T09:30:18.545Z,39.50
2022-09-27T09:40:31.291Z,41.40
2022-09-27T09:50:48.598Z,42.30
2022-09-27T10:00:57.593Z,42.30
2022-09-27T10:11:02.667Z,43.90
2022-09-27T10:21:35.089Z,46.40
2022-09-27T10:31:46.166Z,46.10
2022-09-27T10:41:53.274Z,39.60
2022-09-27T10:52:14.480Z,38.30
2022-09-27T11:02:23.562Z,39.90
2022-09-27T11:12:42.109Z,37.30
2022-09-27T11:23:27.948Z,41.10
2022-09-27T11:33:55.488Z,36.80
2022-09-27T11:44:27.052Z,35.20
2022-09-27T11:54:50.941Z,37.10
2022-09-27T12:05:32.599Z,34.50
2022-09-27T12:15:47.030Z,32.10
2022-09-27T12:25:54.421Z,27.90
2022-09-27T12:36:10.753Z,27.20
2022-09-27T12:46:30.819Z,26.90
2022-09-27T12:56:49.868Z,24.50
2022-09-27T13:07:19.222Z,24.50
2022-09-27T13:17:51.425Z,27.90
2022-09-27T13:28:36.652Z,25.40
2022-09-27T13:39:05.851Z,24.20
2022-09-27T13:49:23.635Z,22.40
2022-09-27T13:59:52.917Z,21.20
2022-09-27T14:10:24.444Z,21.90
2022-09-27T14:20:35.559Z,23.20
2022-09-27T14:30:40.907Z,20.60
2022-09-27T14:41:04.269Z,19.10
2022-09-27T14:51:21.841Z,18.30
2022-09-27T15:01:26.577Z,18.00
2022-09-27T15:11:34.898Z,17.40
2022-09-27T15:21:39.738Z,16.40
2022-09-27T15:31:43.371Z,15.40
2022-09-27T15:52:43.984Z,13.60
2022-09-27T16:02:47.731Z,12.20
2022-09-27T16:12:52.520Z,11.70
2022-09-27T16:22:57.173Z,11.20
2022-09-27T16:33:01.762Z,10.90
2022-09-27T16:43:07.453Z,10.70
2022-09-27T16:53:13.048Z,10.60
2022-09-27T17:03:16.406Z,10.50
2022-09-27T17:13:22.385Z,10.40
2022-09-27T17:23:25.784Z,10.30
2022-09-27T17:33:31.253Z,10.10
2022-09-27T17:43:36.478Z,10.00
2022-09-27T17:53:41.130Z,9.80
2022-09-27T18:03:44.965Z,9.80
2022-09-27T18:13:50.793Z,9.90
2022-09-27T18:23:56.641Z,9.90
2022-09-27T18:34:03.000Z,9.90
2022-09-27T18:44:07.926Z,9.90
2022-09-27T18:54:18.423Z,9.90
2022-09-27T19:04:24.823Z,9.80
2022-09-27T19:14:29.690Z,9.80
2022-09-27T19:24:33.061Z,9.70
2022-09-27T19:34:38.330Z,9.70
2022-09-27T19:44:41.573Z,9.70
2022-09-27T19:54:46.297Z,9.70
2022-09-27T20:04:49.588Z,9.70
2022-09-27T20:14:54.221Z,9.70
2022-09-27T20:24:57.813Z,9.70
2022-09-27T20:35:03.975Z,9.70
2022-09-27T20:45:08.190Z,9.70
2022-09-27T20:55:12.954Z,9.70
2022-09-27T21:05:16.397Z,9.60
2022-09-27T21:15:21.017Z,9.60
2022-09-27T21:25:24.760Z,9.50
2022-09-27T21:35:29.470Z,9.40
2022-09-27T21:45:33.261Z,9.40
2022-09-27T21:55:38.149Z,9.40
2022-09-27T22:05:45.640Z,9.30
2022-09-27T22:15:50.567Z,9.20
2022-09-27T22:25:53.836Z,9.10
2022-09-27T22:35:58.422Z,9.00
2022-09-27T22:46:02.233Z,9.00
2022-09-27T22:56:09.824Z,8.90
2022-09-27T23:06:14.160Z,8.80
2022-09-27T23:16:24.470Z,8.80
2022-09-27T23:26:29.561Z,8.80
2022-09-27T23:36:35.513Z,8.80
2022-09-27T23:46:40.151Z,8.90
2022-09-27T23:56:44.763Z,8.80
